sensor_id;sensor_type;location;lat;lon;timestamp;temperature;humidity
15452;DHT22;7827;53.594;9.938;2023-03-23T00:02:09;11.30;99.90
15452;DHT22;7827;53.594;9.938;2023-03-23T00:04:38;11.30;99.90
15452;DHT22;7827;53.594;9.938;2023-03-23T00:07:05;11.20;99.90
15452;DHT22;7827;53.594;9.938;2023-03-23T00:09:32;11.20;99.90
15452;DHT22;7827;53.594;9.938;2023-03-23T00:12:00;11.10;99.90
15452;DHT22;7827;53.594;9.938;2023-03-23T00:14:31;11.10;99.90
15452;DHT22;7827;53.594;9.938;2023-03-23T00:17:07;11.10;99.90
15452;DHT22;7827;53.594;9.938;2023-03-23T00:19:38;11.10;99.90
15452;DHT22;7827;53.594;9.938;2023-03-23T00:22:12;11.00;99.90
15452;DHT22;7827;53.594;9.938;2023-03-23T00:24:41;11.00;99.90
15452;DHT22;7827;53.594;9.938;2023-03-23T00:27:10;10.90;99.90
15452;DHT22;7827;53.594;9.938;2023-03-23T00:29:41;11.00;99.90
15452;DHT22;7827;53.594;9.938;2023-03-23T00:32:12;11.00;99.90
15452;DHT22;7827;53.594;9.938;2023-03-23T00:34:43;10.90;99.90
15452;DHT22;7827;53.594;9.938;2023-03-23T00:37:11;10.80;99.90
15452;DHT22;7827;53.594;9.938;2023-03-23T00:39:42;10.90;99.90
15452;DHT22;7827;53.594;9.938;2023-03-23T00:42:12;10.90;99.90
15452;DHT22;7827;53.594;9.938;2023-03-23T00:44:42;10.90;99.90
15452;DHT22;7827;53.594;9.938;2023-03-23T00:47:11;10.90;99.90
15452;DHT22;7827;53.594;9.938;2023-03-23T00:49:38;10.90;99.90
15452;DHT22;7827;53.594;9.938;2023-03-23T00:52:09;10.80;99.90
15452;DHT22;7827;53.594;9.938;2023-03-23T00:54:37;10.80;99.90
15452;DHT22;7827;53.594;9.938;2023-03-23T00:57:05;10.90;99.90
15452;DHT22;7827;53.594;9.938;2023-03-23T00:59:32;10.80;99.90
15452;DHT22;7827;53.594;9.938;2023-03-23T01:02:00;10.80;99.90
15452;DHT22;7827;53.594;9.938;2023-03-23T01:04:27;10.80;99.90
15452;DHT22;7827;53.594;9.938;2023-03-23T01:06:57;10.90;99.90
15452;DHT22;7827;53.594;9.938;2023-03-23T01:09:27;10.80;99.90
15452;DHT22;7827;53.594;9.938;2023-03-23T01:11:54;10.90;99.90
15452;DHT22;7827;53.594;9.938;2023-03-23T01:14:23;10.80;99.90
15452;DHT22;7827;53.594;9.938;2023-03-23T01:16:51;10.80;99.90
15452;DHT22;7827;53.594;9.938;2023-03-23T01:19:18;10.90;99.90
15452;DHT22;7827;53.594;9.938;2023-03-23T01:21:45;10.80;99.90
15452;DHT22;7827;53.594;9.938;2023-03-23T01:24:13;10.90;99.90
15452;DHT22;7827;53.594;9.938;2023-03-23T01:26:42;10.90;99.90
15452;DHT22;7827;53.594;9.938;2023-03-23T01:29:09;10.90;99.90
15452;DHT22;7827;53.594;9.938;2023-03-23T01:31:37;10.90;99.90
15452;DHT22;7827;53.594;9.938;2023-03-23T01:34:05;10.90;99.90
15452;DHT22;7827;53.594;9.938;2023-03-23T01:36:34;10.90;99.90
15452;DHT22;7827;53.594;9.938;2023-03-23T01:39:04;10.90;99.90
15452;DHT22;7827;53.594;9.938;2023-03-23T01:41:33;10.90;99.90
15452;DHT22;7827;53.594;9.938;2023-03-23T01:47:43;10.90;99.90
15452;DHT22;7827;53.594;9.938;2023-03-23T01:50:10;10.90;99.90
15452;DHT22;7827;53.594;9.938;2023-03-23T01:52:38;10.90;99.90
15452;DHT22;7827;53.594;9.938;2023-03-23T01:55:06;10.80;99.90
15452;DHT22;7827;53.594;9.938;2023-03-23T01:57:34;10.80;99.90
15452;DHT22;7827;53.594;9.938;2023-03-23T02:00:05;10.80;99.90
15452;DHT22;7827;53.594;9.938;2023-03-23T02:02:42;10.90;99.90
15452;DHT22;7827;53.594;9.938;2023-03-23T02:05:14;10.90;99.90
15452;DHT22;7827;53.594;9.938;2023-03-23T02:07:47;10.80;99.90
15452;DHT22;7827;53.594;9.938;2023-03-23T02:10:16;10.80;99.90
15452;DHT22;7827;53.594;9.938;2023-03-23T02:12:44;10.90;99.90
15452;DHT22;7827;53.594;9.938;2023-03-23T02:15:12;10.90;99.90
15452;DHT22;7827;53.594;9.938;2023-03-23T02:17:48;10.90;99.90
15452;DHT22;7827;53.594;9.938;2023-03-23T02:20:38;10.90;99.90
15452;DHT22;7827;53.594;9.938;2023-03-23T02:26:33;10.90;99.90
15452;DHT22;7827;53.594;9.938;2023-03-23T02:29:18;10.90;99.90
15452;DHT22;7827;53.594;9.938;2023-03-23T02:32:16;10.90;99.90
15452;DHT22;7827;53.594;9.938;2023-03-23T02:35:10;10.90;99.90
15452;DHT22;7827;53.594;9.938;2023-03-23T02:37:47;10.90;99.90
15452;DHT22;7827;53.594;9.938;2023-03-23T02:40:19;10.90;99.90
15452;DHT22;7827;53.594;9.938;2023-03-23T02:42:50;10.90;99.90
15452;DHT22;7827;53.594;9.938;2023-03-23T02:45:21;10.80;99.90
15452;DHT22;7827;53.594;9.938;2023-03-23T02:47:53;10.90;99.90
15452;DHT22;7827;53.594;9.938;2023-03-23T02:50:24;10.90;99.90
15452;DHT22;7827;53.594;9.938;2023-03-23T02:52:55;10.90;99.90
15452;DHT22;7827;53.594;9.938;2023-03-23T02:55:27;10.90;99.90
15452;DHT22;7827;53.594;9.938;2023-03-23T02:58:00;10.90;99.90
15452;DHT22;7827;53.594;9.938;2023-03-23T03:00:28;10.90;99.90
15452;DHT22;7827;53.594;9.938;2023-03-23T03:02:58;10.90;99.90
15452;DHT22;7827;53.594;9.938;2023-03-23T03:05:37;10.90;99.90
15452;DHT22;7827;53.594;9.938;2023-03-23T03:08:12;10.90;99.90
15452;DHT22;7827;53.594;9.938;2023-03-23T03:10:51;10.90;99.90
15452;DHT22;7827;53.594;9.938;2023-03-23T03:13:29;10.90;99.90
15452;DHT22;7827;53.594;9.938;2023-03-23T03:16:07;11.00;99.90
15452;DHT22;7827;53.594;9.938;2023-03-23T03:18:44;11.00;99.90
15452;DHT22;7827;53.594;9.938;2023-03-23T03:21:16;10.90;99.90
15452;DHT22;7827;53.594;9.938;2023-03-23T03:23:53;11.00;99.90
15452;DHT22;7827;53.594;9.938;2023-03-23T03:26:24;10.90;99.90
15452;DHT22;7827;53.594;9.938;2023-03-23T03:28:58;11.00;99.90
15452;DHT22;7827;53.594;9.938;2023-03-23T03:31:30;10.90;99.90
15452;DHT22;7827;53.594;9.938;2023-03-23T03:34:00;10.90;99.90
15452;DHT22;7827;53.594;9.938;2023-03-23T03:36:36;10.90;99.90
15452;DHT22;7827;53.594;9.938;2023-03-23T03:39:08;10.90;99.90
15452;DHT22;7827;53.594;9.938;2023-03-23T03:41:38;11.00;99.90
15452;DHT22;7827;53.594;9.938;2023-03-23T03:44:06;11.00;99.90
15452;DHT22;7827;53.594;9.938;2023-03-23T03:46:35;11.10;99.90
15452;DHT22;7827;53.594;9.938;2023-03-23T03:49:06;11.10;99.90
15452;DHT22;7827;53.594;9.938;2023-03-23T03:51:39;11.10;99.90
15452;DHT22;7827;53.594;9.938;2023-03-23T03:54:12;11.10;99.90
15452;DHT22;7827;53.594;9.938;2023-03-23T03:56:39;11.10;99.90
15452;DHT22;7827;53.594;9.938;2023-03-23T03:59:36;11.10;99.90
15452;DHT22;7827;53.594;9.938;2023-03-23T04:02:22;11.10;99.90
15452;DHT22;7827;53.594;9.938;2023-03-23T04:04:51;11.20;99.90
15452;DHT22;7827;53.594;9.938;2023-03-23T04:07:20;11.20;99.90
15452;DHT22;7827;53.594;9.938;2023-03-23T04:09:51;11.30;99.90
15452;DHT22;7827;53.594;9.938;2023-03-23T04:12:20;11.30;99.90
15452;DHT22;7827;53.594;9.938;2023-03-23T04:14:56;11.40;99.90
15452;DHT22;7827;53.594;9.938;2023-03-23T04:17:31;11.40;99.90
15452;DHT22;7827;53.594;9.938;2023-03-23T04:19:59;11.40;99.90
15452;DHT22;7827;53.594;9.938;2023-03-23T04:22:34;11.40;99.90
15452;DHT22;7827;53.594;9.938;2023-03-23T04:25:02;11.40;99.90
15452;DHT22;7827;53.594;9.938;2023-03-23T04:27:34;11.30;99.90
15452;DHT22;7827;53.594;9.938;2023-03-23T04:30:05;11.30;99.90
15452;DHT22;7827;53.594;9.938;2023-03-23T04:32:36;11.30;99.90
15452;DHT22;7827;53.594;9.938;2023-03-23T04:35:08;11.30;99.90
15452;DHT22;7827;53.594;9.938;2023-03-23T04:37:44;11.20;99.90
15452;DHT22;7827;53.594;9.938;2023-03-23T04:40:15;11.20;99.90
15452;DHT22;7827;53.594;9.938;2023-03-23T04:42:51;11.20;99.90
15452;DHT22;7827;53.594;9.938;2023-03-23T04:45:32;11.20;99.90
15452;DHT22;7827;53.594;9.938;2023-03-23T04:48:00;11.20;99.90
15452;DHT22;7827;53.594;9.938;2023-03-23T04:50:45;11.20;99.90
15452;DHT22;7827;53.594;9.938;2023-03-23T04:53:24;11.10;99.90
15452;DHT22;7827;53.594;9.938;2023-03-23T04:55:52;11.20;99.90
15452;DHT22;7827;53.594;9.938;2023-03-23T04:58:20;11.20;99.90
15452;DHT22;7827;53.594;9.938;2023-03-23T05:01:00;11.20;99.90
15452;DHT22;7827;53.594;9.938;2023-03-23T05:03:28;11.10;99.90
15452;DHT22;7827;53.594;9.938;2023-03-23T05:05:57;11.10;99.90
15452;DHT22;7827;53.594;9.938;2023-03-23T05:08:25;11.10;99.90
15452;DHT22;7827;53.594;9.938;2023-03-23T05:10:54;11.10;99.90
15452;DHT22;7827;53.594;9.938;2023-03-23T05:13:24;11.20;99.90
15452;DHT22;7827;53.594;9.938;2023-03-23T05:15:54;11.20;99.90
15452;DHT22;7827;53.594;9.938;2023-03-23T05:18:22;11.30;99.90
15452;DHT22;7827;53.594;9.938;2023-03-23T05:20:49;11.30;99.90
15452;DHT22;7827;53.594;9.938;2023-03-23T05:23:20;11.30;99.90
15452;DHT22;7827;53.594;9.938;2023-03-23T05:25:57;11.30;99.90
15452;DHT22;7827;53.594;9.938;2023-03-23T05:28:28;11.30;99.90
15452;DHT22;7827;53.594;9.938;2023-03-23T05:31:11;11.40;99.90
15452;DHT22;7827;53.594;9.938;2023-03-23T05:33:39;11.30;99.90
15452;DHT22;7827;53.594;9.938;2023-03-23T05:36:14;11.30;99.90
15452;DHT22;7827;53.594;9.938;2023-03-23T05:39:00;11.30;99.90
15452;DHT22;7827;53.594;9.938;2023-03-23T05:41:45;11.30;99.90
15452;DHT22;7827;53.594;9.938;2023-03-23T05:44:13;11.30;99.90
15452;DHT22;7827;53.594;9.938;2023-03-23T05:46:52;11.30;99.90
15452;DHT22;7827;53.594;9.938;2023-03-23T05:49:19;11.30;99.90
15452;DHT22;7827;53.594;9.938;2023-03-23T05:51:48;11.30;99.90
15452;DHT22;7827;53.594;9.938;2023-03-23T05:54:16;11.30;99.90
15452;DHT22;7827;53.594;9.938;2023-03-23T05:56:48;11.30;99.90
15452;DHT22;7827;53.594;9.938;2023-03-23T05:59:34;11.20;99.90
15452;DHT22;7827;53.594;9.938;2023-03-23T06:02:04;11.20;99.90
15452;DHT22;7827;53.594;9.938;2023-03-23T06:04:32;11.20;99.90
15452;DHT22;7827;53.594;9.938;2023-03-23T06:07:09;11.20;99.90
15452;DHT22;7827;53.594;9.938;2023-03-23T06:09:41;11.20;99.90
15452;DHT22;7827;53.594;9.938;2023-03-23T06:12:29;11.20;99.90
15452;DHT22;7827;53.594;9.938;2023-03-23T06:15:25;11.20;99.90
15452;DHT22;7827;53.594;9.938;2023-03-23T06:18:01;11.10;99.90
15452;DHT22;7827;53.594;9.938;2023-03-23T06:20:37;11.10;99.90
15452;DHT22;7827;53.594;9.938;2023-03-23T06:23:20;11.10;99.90
15452;DHT22;7827;53.594;9.938;2023-03-23T06:25:48;11.10;99.90
15452;DHT22;7827;53.594;9.938;2023-03-23T06:28:17;11.10;99.90
15452;DHT22;7827;53.594;9.938;2023-03-23T06:30:47;11.10;99.90
15452;DHT22;7827;53.594;9.938;2023-03-23T06:33:15;11.10;99.90
15452;DHT22;7827;53.594;9.938;2023-03-23T06:36:08;11.10;99.90
15452;DHT22;7827;53.594;9.938;2023-03-23T06:38:48;11.20;99.90
15452;DHT22;7827;53.594;9.938;2023-03-23T06:41:20;11.30;99.90
15452;DHT22;7827;53.594;9.938;2023-03-23T06:43:48;11.30;99.90
15452;DHT22;7827;53.594;9.938;2023-03-23T06:46:24;11.40;99.90
15452;DHT22;7827;53.594;9.938;2023-03-23T06:48:52;11.40;99.90
15452;DHT22;7827;53.594;9.938;2023-03-23T06:51:26;11.50;99.90
15452;DHT22;7827;53.594;9.938;2023-03-23T06:53:55;11.50;99.90
15452;DHT22;7827;53.594;9.938;2023-03-23T06:56:24;11.50;99.90
15452;DHT22;7827;53.594;9.938;2023-03-23T06:58:53;11.60;99.90
15452;DHT22;7827;53.594;9.938;2023-03-23T07:01:22;11.60;99.90
15452;DHT22;7827;53.594;9.938;2023-03-23T07:03:56;11.70;99.90
15452;DHT22;7827;53.594;9.938;2023-03-23T07:06:34;11.80;99.90
15452;DHT22;7827;53.594;9.938;2023-03-23T07:09:05;11.80;99.90
15452;DHT22;7827;53.594;9.938;2023-03-23T07:11:33;11.80;99.90
15452;DHT22;7827;53.594;9.938;2023-03-23T07:14:07;11.90;99.90
15452;DHT22;7827;53.594;9.938;2023-03-23T07:16:35;12.00;99.90
15452;DHT22;7827;53.594;9.938;2023-03-23T07:19:03;12.10;99.90
15452;DHT22;7827;53.594;9.938;2023-03-23T07:21:30;12.10;99.90
15452;DHT22;7827;53.594;9.938;2023-03-23T07:23:57;12.10;99.90
15452;DHT22;7827;53.594;9.938;2023-03-23T07:26:51;12.10;99.90
15452;DHT22;7827;53.594;9.938;2023-03-23T07:29:20;12.10;99.90
15452;DHT22;7827;53.594;9.938;2023-03-23T07:31:56;12.20;99.90
15452;DHT22;7827;53.594;9.938;2023-03-23T07:34:23;12.20;99.90
15452;DHT22;7827;53.594;9.938;2023-03-23T07:37:17;12.20;99.90
15452;DHT22;7827;53.594;9.938;2023-03-23T07:39:47;12.40;99.90
15452;DHT22;7827;53.594;9.938;2023-03-23T07:42:15;12.50;99.90
15452;DHT22;7827;53.594;9.938;2023-03-23T07:44:50;12.50;99.90
15452;DHT22;7827;53.594;9.938;2023-03-23T07:47:17;12.70;99.90
15452;DHT22;7827;53.594;9.938;2023-03-23T07:49:47;12.60;99.90
15452;DHT22;7827;53.594;9.938;2023-03-23T07:52:22;12.60;99.90
15452;DHT22;7827;53.594;9.938;2023-03-23T07:54:50;12.40;99.90
15452;DHT22;7827;53.594;9.938;2023-03-23T07:57:30;12.30;99.90
15452;DHT22;7827;53.594;9.938;2023-03-23T07:59:59;12.20;99.90
15452;DHT22;7827;53.594;9.938;2023-03-23T08:02:41;12.10;99.90
15452;DHT22;7827;53.594;9.938;2023-03-23T08:05:34;12.00;99.90
15452;DHT22;7827;53.594;9.938;2023-03-23T08:08:04;11.90;99.90
15452;DHT22;7827;53.594;9.938;2023-03-23T08:10:51;11.90;99.90
15452;DHT22;7827;53.594;9.938;2023-03-23T08:13:42;11.90;99.90
15452;DHT22;7827;53.594;9.938;2023-03-23T08:16:21;11.80;99.90
15452;DHT22;7827;53.594;9.938;2023-03-23T08:19:06;11.90;99.90
15452;DHT22;7827;53.594;9.938;2023-03-23T08:21:36;11.70;99.90
15452;DHT22;7827;53.594;9.938;2023-03-23T08:24:06;11.30;99.90
15452;DHT22;7827;53.594;9.938;2023-03-23T08:26:57;11.10;99.90
15452;DHT22;7827;53.594;9.938;2023-03-23T08:29:53;10.90;99.90
15452;DHT22;7827;53.594;9.938;2023-03-23T08:32:43;10.80;99.90
15452;DHT22;7827;53.594;9.938;2023-03-23T08:35:41;10.80;99.90
15452;DHT22;7827;53.594;9.938;2023-03-23T08:38:32;10.90;99.90
15452;DHT22;7827;53.594;9.938;2023-03-23T08:41:23;10.80;99.90
15452;DHT22;7827;53.594;9.938;2023-03-23T08:44:16;10.90;99.90
15452;DHT22;7827;53.594;9.938;2023-03-23T08:47:20;11.00;99.90
15452;DHT22;7827;53.594;9.938;2023-03-23T08:50:25;11.00;99.90
15452;DHT22;7827;53.594;9.938;2023-03-23T08:53:23;11.10;99.90
15452;DHT22;7827;53.594;9.938;2023-03-23T08:56:17;11.20;99.90
15452;DHT22;7827;53.594;9.938;2023-03-23T08:59:08;11.40;99.90
15452;DHT22;7827;53.594;9.938;2023-03-23T09:01:43;11.50;99.90
15452;DHT22;7827;53.594;9.938;2023-03-23T09:04:33;11.50;99.90
15452;DHT22;7827;53.594;9.938;2023-03-23T09:07:25;11.60;99.90
15452;DHT22;7827;53.594;9.938;2023-03-23T09:09:52;11.60;99.90
15452;DHT22;7827;53.594;9.938;2023-03-23T09:12:19;11.70;99.90
15452;DHT22;7827;53.594;9.938;2023-03-23T09:14:46;11.70;99.90
15452;DHT22;7827;53.594;9.938;2023-03-23T09:17:14;11.70;99.90
15452;DHT22;7827;53.594;9.938;2023-03-23T09:19:41;11.80;99.90
15452;DHT22;7827;53.594;9.938;2023-03-23T09:22:08;11.80;99.90
15452;DHT22;7827;53.594;9.938;2023-03-23T09:24:37;11.80;99.90
15452;DHT22;7827;53.594;9.938;2023-03-23T09:27:04;11.70;99.90
15452;DHT22;7827;53.594;9.938;2023-03-23T09:29:31;11.70;99.90
15452;DHT22;7827;53.594;9.938;2023-03-23T09:31:59;11.70;99.90
15452;DHT22;7827;53.594;9.938;2023-03-23T09:34:26;11.60;99.90
15452;DHT22;7827;53.594;9.938;2023-03-23T09:36:54;11.70;99.90
15452;DHT22;7827;53.594;9.938;2023-03-23T09:39:22;11.70;99.90
15452;DHT22;7827;53.594;9.938;2023-03-23T09:42:02;11.80;99.90
15452;DHT22;7827;53.594;9.938;2023-03-23T09:44:48;11.90;99.90
15452;DHT22;7827;53.594;9.938;2023-03-23T09:47:32;12.00;99.90
15452;DHT22;7827;53.594;9.938;2023-03-23T09:50:12;12.00;99.90
15452;DHT22;7827;53.594;9.938;2023-03-23T09:52:44;12.10;99.90
15452;DHT22;7827;53.594;9.938;2023-03-23T09:55:16;12.20;99.90
15452;DHT22;7827;53.594;9.938;2023-03-23T09:57:49;12.30;99.90
15452;DHT22;7827;53.594;9.938;2023-03-23T10:00:32;12.40;99.90
15452;DHT22;7827;53.594;9.938;2023-03-23T10:03:06;12.40;99.90
15452;DHT22;7827;53.594;9.938;2023-03-23T10:05:41;12.40;99.90
15452;DHT22;7827;53.594;9.938;2023-03-23T10:08:14;12.50;99.90
15452;DHT22;7827;53.594;9.938;2023-03-23T10:10:52;12.50;99.90
15452;DHT22;7827;53.594;9.938;2023-03-23T10:13:35;12.50;99.90
15452;DHT22;7827;53.594;9.938;2023-03-23T10:16:19;12.50;99.90
15452;DHT22;7827;53.594;9.938;2023-03-23T10:18:52;12.50;99.90
15452;DHT22;7827;53.594;9.938;2023-03-23T10:21:26;12.60;99.90
15452;DHT22;7827;53.594;9.938;2023-03-23T10:23:58;12.70;99.90
15452;DHT22;7827;53.594;9.938;2023-03-23T10:26:37;12.70;99.90
15452;DHT22;7827;53.594;9.938;2023-03-23T10:29:16;12.70;99.90
15452;DHT22;7827;53.594;9.938;2023-03-23T10:31:49;12.70;99.90
15452;DHT22;7827;53.594;9.938;2023-03-23T10:34:22;12.80;99.90
15452;DHT22;7827;53.594;9.938;2023-03-23T10:37:01;12.70;99.90
15452;DHT22;7827;53.594;9.938;2023-03-23T10:39:40;12.70;99.90
15452;DHT22;7827;53.594;9.938;2023-03-23T10:42:22;12.70;99.90
15452;DHT22;7827;53.594;9.938;2023-03-23T10:44:53;12.70;99.90
15452;DHT22;7827;53.594;9.938;2023-03-23T10:47:22;12.70;99.90
15452;DHT22;7827;53.594;9.938;2023-03-23T10:49:51;12.70;99.90
15452;DHT22;7827;53.594;9.938;2023-03-23T10:52:29;12.60;99.90
15452;DHT22;7827;53.594;9.938;2023-03-23T10:55:04;12.50;99.90
15452;DHT22;7827;53.594;9.938;2023-03-23T10:57:36;12.40;99.90
15452;DHT22;7827;53.594;9.938;2023-03-23T11:00:17;12.40;99.90
15452;DHT22;7827;53.594;9.938;2023-03-23T11:02:57;12.40;99.90
15452;DHT22;7827;53.594;9.938;2023-03-23T11:05:32;12.50;99.90
15452;DHT22;7827;53.594;9.938;2023-03-23T11:08:04;12.60;99.90
15452;DHT22;7827;53.594;9.938;2023-03-23T11:10:41;12.80;99.90
15452;DHT22;7827;53.594;9.938;2023-03-23T11:13:16;12.90;99.90
15452;DHT22;7827;53.594;9.938;2023-03-23T11:15:47;13.00;99.90
15452;DHT22;7827;53.594;9.938;2023-03-23T11:18:20;13.20;99.90
15452;DHT22;7827;53.594;9.938;2023-03-23T11:20:52;13.20;99.90
15452;DHT22;7827;53.594;9.938;2023-03-23T11:23:24;13.30;99.90
15452;DHT22;7827;53.594;9.938;2023-03-23T11:25:57;13.30;91.00
15452;DHT22;7827;53.594;9.938;2023-03-23T11:28:38;13.40;10.40
15452;DHT22;7827;53.594;9.938;2023-03-23T11:31:12;13.40;13.70
15452;DHT22;7827;53.594;9.938;2023-03-23T11:33:52;13.40;1.00
15452;DHT22;7827;53.594;9.938;2023-03-23T11:36:30;13.30;1.00
15452;DHT22;7827;53.594;9.938;2023-03-23T11:38:59;13.40;1.70
15452;DHT22;7827;53.594;9.938;2023-03-23T11:41:34;13.50;1.00
15452;DHT22;7827;53.594;9.938;2023-03-23T11:44:10;13.50;1.00
15452;DHT22;7827;53.594;9.938;2023-03-23T11:46:46;13.60;1.00
15452;DHT22;7827;53.594;9.938;2023-03-23T11:49:28;13.50;1.00
15452;DHT22;7827;53.594;9.938;2023-03-23T11:52:09;13.50;1.00
15452;DHT22;7827;53.594;9.938;2023-03-23T11:54:46;13.60;1.00
15452;DHT22;7827;53.594;9.938;2023-03-23T11:57:19;13.60;58.00
15452;DHT22;7827;53.594;9.938;2023-03-23T11:59:46;13.60;97.20
15452;DHT22;7827;53.594;9.938;2023-03-23T12:02:28;13.50;99.90
15452;DHT22;7827;53.594;9.938;2023-03-23T12:05:30;13.50;99.90
15452;DHT22;7827;53.594;9.938;2023-03-23T12:08:23;13.40;99.90
15452;DHT22;7827;53.594;9.938;2023-03-23T12:11:08;13.30;99.90
15452;DHT22;7827;53.594;9.938;2023-03-23T12:13:49;13.40;99.90
15452;DHT22;7827;53.594;9.938;2023-03-23T12:16:33;13.30;99.90
15452;DHT22;7827;53.594;9.938;2023-03-23T12:19:16;13.40;99.90
15452;DHT22;7827;53.594;9.938;2023-03-23T12:21:54;13.50;99.90
15452;DHT22;7827;53.594;9.938;2023-03-23T12:24:37;13.50;80.10
15452;DHT22;7827;53.594;9.938;2023-03-23T12:27:20;13.60;83.00
15452;DHT22;7827;53.594;9.938;2023-03-23T12:30:09;13.50;94.20
15452;DHT22;7827;53.594;9.938;2023-03-23T12:32:58;13.40;99.90
15452;DHT22;7827;53.594;9.938;2023-03-23T12:35:52;13.30;99.90
15452;DHT22;7827;53.594;9.938;2023-03-23T12:38:44;13.30;99.90
15452;DHT22;7827;53.594;9.938;2023-03-23T12:41:23;13.30;99.90
15452;DHT22;7827;53.594;9.938;2023-03-23T12:43:58;13.30;99.90
15452;DHT22;7827;53.594;9.938;2023-03-23T12:49:49;13.40;99.90
15452;DHT22;7827;53.594;9.938;2023-03-23T12:52:24;13.30;99.90
15452;DHT22;7827;53.594;9.938;2023-03-23T12:55:00;13.20;99.90
15452;DHT22;7827;53.594;9.938;2023-03-23T12:57:34;13.20;99.90
15452;DHT22;7827;53.594;9.938;2023-03-23T13:00:14;13.20;99.90
15452;DHT22;7827;53.594;9.938;2023-03-23T13:02:51;13.20;99.90
15452;DHT22;7827;53.594;9.938;2023-03-23T13:05:34;13.40;99.90
15452;DHT22;7827;53.594;9.938;2023-03-23T13:08:18;13.70;99.90
15452;DHT22;7827;53.594;9.938;2023-03-23T13:10:50;13.90;99.90
15452;DHT22;7827;53.594;9.938;2023-03-23T13:13:20;14.10;99.90
15452;DHT22;7827;53.594;9.938;2023-03-23T13:16:03;14.30;81.50
15452;DHT22;7827;53.594;9.938;2023-03-23T13:18:41;14.40;42.00
15452;DHT22;7827;53.594;9.938;2023-03-23T13:21:19;14.30;27.60
15452;DHT22;7827;53.594;9.938;2023-03-23T13:23:56;14.20;22.70
15452;DHT22;7827;53.594;9.938;2023-03-23T13:26:27;14.20;44.80
15452;DHT22;7827;53.594;9.938;2023-03-23T13:28:57;14.30;48.00
15452;DHT22;7827;53.594;9.938;2023-03-23T13:31:29;14.40;11.90
15452;DHT22;7827;53.594;9.938;2023-03-23T13:34:10;14.50;1.00
15452;DHT22;7827;53.594;9.938;2023-03-23T13:36:45;14.50;1.00
15452;DHT22;7827;53.594;9.938;2023-03-23T13:39:22;14.50;1.00
15452;DHT22;7827;53.594;9.938;2023-03-23T13:42:18;14.30;1.00
15452;DHT22;7827;53.594;9.938;2023-03-23T13:44:56;14.20;1.00
15452;DHT22;7827;53.594;9.938;2023-03-23T13:47:37;14.00;1.00
15452;DHT22;7827;53.594;9.938;2023-03-23T13:50:12;13.90;1.00
15452;DHT22;7827;53.594;9.938;2023-03-23T13:52:54;13.80;1.00
15452;DHT22;7827;53.594;9.938;2023-03-23T13:55:47;13.80;1.00
15452;DHT22;7827;53.594;9.938;2023-03-23T13:58:24;13.70;14.40
15452;DHT22;7827;53.594;9.938;2023-03-23T14:01:11;12.40;1.00
15452;DHT22;7827;53.594;9.938;2023-03-23T14:03:43;11.40;17.50
15452;DHT22;7827;53.594;9.938;2023-03-23T14:06:19;10.80;96.60
15452;DHT22;7827;53.594;9.938;2023-03-23T14:09:16;10.20;99.90
15452;DHT22;7827;53.594;9.938;2023-03-23T14:11:49;9.90;99.90
15452;DHT22;7827;53.594;9.938;2023-03-23T14:14:23;9.80;99.90
15452;DHT22;7827;53.594;9.938;2023-03-23T14:17:05;9.80;99.90
15452;DHT22;7827;53.594;9.938;2023-03-23T14:19:38;10.00;99.90
15452;DHT22;7827;53.594;9.938;2023-03-23T14:22:18;10.10;99.90
15452;DHT22;7827;53.594;9.938;2023-03-23T14:24:47;10.30;99.90
15452;DHT22;7827;53.594;9.938;2023-03-23T14:27:18;10.30;99.90
15452;DHT22;7827;53.594;9.938;2023-03-23T14:29:57;10.50;99.90
15452;DHT22;7827;53.594;9.938;2023-03-23T14:32:28;10.80;99.90
15452;DHT22;7827;53.594;9.938;2023-03-23T14:34:59;11.00;99.90
15452;DHT22;7827;53.594;9.938;2023-03-23T14:37:33;11.30;99.90
15452;DHT22;7827;53.594;9.938;2023-03-23T14:40:02;11.40;99.90
15452;DHT22;7827;53.594;9.938;2023-03-23T14:42:35;11.40;99.90
15452;DHT22;7827;53.594;9.938;2023-03-23T14:45:05;11.40;99.90
15452;DHT22;7827;53.594;9.938;2023-03-23T14:47:35;11.60;99.90
15452;DHT22;7827;53.594;9.938;2023-03-23T14:50:18;11.60;99.90
15452;DHT22;7827;53.594;9.938;2023-03-23T14:52:49;11.70;99.90
15452;DHT22;7827;53.594;9.938;2023-03-23T14:55:20;11.80;99.90
15452;DHT22;7827;53.594;9.938;2023-03-23T14:57:50;11.90;99.90
15452;DHT22;7827;53.594;9.938;2023-03-23T15:00:21;12.00;99.90
15452;DHT22;7827;53.594;9.938;2023-03-23T15:02:52;12.10;99.90
15452;DHT22;7827;53.594;9.938;2023-03-23T15:05:26;12.10;99.90
15452;DHT22;7827;53.594;9.938;2023-03-23T15:07:59;12.10;85.20
15452;DHT22;7827;53.594;9.938;2023-03-23T15:10:30;12.10;63.10
15452;DHT22;7827;53.594;9.938;2023-03-23T15:12:59;12.00;83.30
15452;DHT22;7827;53.594;9.938;2023-03-23T15:15:29;11.90;76.40
15452;DHT22;7827;53.594;9.938;2023-03-23T15:17:59;11.90;66.20
15452;DHT22;7827;53.594;9.938;2023-03-23T15:20:29;11.90;72.20
15452;DHT22;7827;53.594;9.938;2023-03-23T15:23:05;11.80;53.80
15452;DHT22;7827;53.594;9.938;2023-03-23T15:25:34;11.80;62.40
15452;DHT22;7827;53.594;9.938;2023-03-23T15:28:16;11.80;82.70
15452;DHT22;7827;53.594;9.938;2023-03-23T15:30:49;11.80;90.00
15452;DHT22;7827;53.594;9.938;2023-03-23T15:33:18;11.80;90.90
15452;DHT22;7827;53.594;9.938;2023-03-23T15:35:53;11.80;97.90
15452;DHT22;7827;53.594;9.938;2023-03-23T15:38:24;11.80;93.60
15452;DHT22;7827;53.594;9.938;2023-03-23T15:40:54;11.80;99.00
15452;DHT22;7827;53.594;9.938;2023-03-23T15:43:25;11.80;99.90
15452;DHT22;7827;53.594;9.938;2023-03-23T15:45:55;11.80;99.90
15452;DHT22;7827;53.594;9.938;2023-03-23T15:48:27;11.80;92.30
15452;DHT22;7827;53.594;9.938;2023-03-23T15:50:54;11.90;99.90
15452;DHT22;7827;53.594;9.938;2023-03-23T15:53:30;11.90;99.90
15452;DHT22;7827;53.594;9.938;2023-03-23T15:56:00;11.90;82.00
15452;DHT22;7827;53.594;9.938;2023-03-23T15:58:30;11.80;86.20
15452;DHT22;7827;53.594;9.938;2023-03-23T16:01:02;11.70;91.00
15452;DHT22;7827;53.594;9.938;2023-03-23T16:03:37;11.70;75.50
15452;DHT22;7827;53.594;9.938;2023-03-23T16:06:10;11.70;90.20
15452;DHT22;7827;53.594;9.938;2023-03-23T16:08:51;11.70;72.00
15452;DHT22;7827;53.594;9.938;2023-03-23T16:11:21;11.80;86.40
15452;DHT22;7827;53.594;9.938;2023-03-23T16:13:52;11.80;98.60
15452;DHT22;7827;53.594;9.938;2023-03-23T16:16:23;11.80;84.70
15452;DHT22;7827;53.594;9.938;2023-03-23T16:18:53;11.80;99.90
15452;DHT22;7827;53.594;9.938;2023-03-23T16:21:22;11.50;99.90
15452;DHT22;7827;53.594;9.938;2023-03-23T16:23:51;11.50;99.90
15452;DHT22;7827;53.594;9.938;2023-03-23T16:26:19;11.50;99.90
15452;DHT22;7827;53.594;9.938;2023-03-23T16:28:47;11.50;99.90
15452;DHT22;7827;53.594;9.938;2023-03-23T16:31:19;11.50;99.90
15452;DHT22;7827;53.594;9.938;2023-03-23T16:33:47;11.50;99.90
15452;DHT22;7827;53.594;9.938;2023-03-23T16:36:16;11.50;99.90
15452;DHT22;7827;53.594;9.938;2023-03-23T16:38:44;11.50;99.90
15452;DHT22;7827;53.594;9.938;2023-03-23T16:41:17;11.60;99.90
15452;DHT22;7827;53.594;9.938;2023-03-23T16:43:45;11.50;99.90
15452;DHT22;7827;53.594;9.938;2023-03-23T16:46:14;11.50;99.90